sensor_id;sensor_type;location;lat;lon;timestamp;temperature;humidity
19037;DHT22;9651;49.138;8.900;2022-12-18T00:02:55;-6.60;99.90
19037;DHT22;9651;49.138;8.900;2022-12-18T00:06:58;-6.70;99.90
19037;DHT22;9651;49.138;8.900;2022-12-18T00:11:03;-6.70;99.90
19037;DHT22;9651;49.138;8.900;2022-12-18T00:15:06;-6.70;99.90
19037;DHT22;9651;49.138;8.900;2022-12-18T00:19:10;-6.70;99.90
19037;DHT22;9651;49.138;8.900;2022-12-18T00:23:13;-6.70;99.90
19037;DHT22;9651;49.138;8.900;2022-12-18T00:27:15;-6.70;99.90
19037;DHT22;9651;49.138;8.900;2022-12-18T00:31:19;-6.80;99.90
19037;DHT22;9651;49.138;8.900;2022-12-18T00:35:21;-6.70;99.90
19037;DHT22;9651;49.138;8.900;2022-12-18T00:39:24;-6.70;99.90
19037;DHT22;9651;49.138;8.900;2022-12-18T00:43:26;-6.70;99.90
19037;DHT22;9651;49.138;8.900;2022-12-18T00:47:28;-6.70;99.90
19037;DHT22;9651;49.138;8.900;2022-12-18T00:51:30;-6.70;99.90
19037;DHT22;9651;49.138;8.900;2022-12-18T00:55:33;-6.70;99.90
19037;DHT22;9651;49.138;8.900;2022-12-18T00:59:35;-6.70;99.90
19037;DHT22;9651;49.138;8.900;2022-12-18T01:03:37;-6.70;99.90
19037;DHT22;9651;49.138;8.900;2022-12-18T01:07:39;-6.70;99.90
19037;DHT22;9651;49.138;8.900;2022-12-18T01:11:42;-6.70;99.90
19037;DHT22;9651;49.138;8.900;2022-12-18T01:15:48;-6.80;99.90
19037;DHT22;9651;49.138;8.900;2022-12-18T01:19:51;-6.80;99.90
19037;DHT22;9651;49.138;8.900;2022-12-18T01:23:54;-6.80;99.90
19037;DHT22;9651;49.138;8.900;2022-12-18T01:27:59;-6.80;99.90
19037;DHT22;9651;49.138;8.900;2022-12-18T01:32:00;-6.80;99.90
19037;DHT22;9651;49.138;8.900;2022-12-18T01:36:04;-6.90;99.90
19037;DHT22;9651;49.138;8.900;2022-12-18T01:40:07;-6.90;99.90
19037;DHT22;9651;49.138;8.900;2022-12-18T01:48:49;-6.90;99.90
19037;DHT22;9651;49.138;8.900;2022-12-18T01:52:53;-6.90;99.90
19037;DHT22;9651;49.138;8.900;2022-12-18T01:56:55;-6.90;99.90
19037;DHT22;9651;49.138;8.900;2022-12-18T02:00:57;-6.90;99.90
19037;DHT22;9651;49.138;8.900;2022-12-18T02:05:02;-6.90;99.90
19037;DHT22;9651;49.138;8.900;2022-12-18T02:09:08;-7.00;99.90
19037;DHT22;9651;49.138;8.900;2022-12-18T02:13:14;-7.00;99.90
19037;DHT22;9651;49.138;8.900;2022-12-18T02:17:22;-7.00;99.90
19037;DHT22;9651;49.138;8.900;2022-12-18T02:21:34;-7.00;99.90
19037;DHT22;9651;49.138;8.900;2022-12-18T02:26:00;-6.90;99.90
19037;DHT22;9651;49.138;8.900;2022-12-18T02:30:05;-6.90;99.90
19037;DHT22;9651;49.138;8.900;2022-12-18T02:34:08;-6.80;99.90
19037;DHT22;9651;49.138;8.900;2022-12-18T02:38:13;-6.80;99.90
19037;DHT22;9651;49.138;8.900;2022-12-18T02:42:20;-6.80;99.90
19037;DHT22;9651;49.138;8.900;2022-12-18T02:46:30;-6.80;99.90
19037;DHT22;9651;49.138;8.900;2022-12-18T02:50:38;-6.80;99.90
19037;DHT22;9651;49.138;8.900;2022-12-18T02:54:52;-6.80;99.90
19037;DHT22;9651;49.138;8.900;2022-12-18T02:59:02;-6.80;99.90
19037;DHT22;9651;49.138;8.900;2022-12-18T03:03:16;-6.90;99.90
19037;DHT22;9651;49.138;8.900;2022-12-18T03:07:27;-6.80;99.90
19037;DHT22;9651;49.138;8.900;2022-12-18T03:11:34;-6.90;99.90
19037;DHT22;9651;49.138;8.900;2022-12-18T03:16:07;-7.00;99.90
19037;DHT22;9651;49.138;8.900;2022-12-18T03:20:12;-7.00;99.90
19037;DHT22;9651;49.138;8.900;2022-12-18T03:24:17;-6.90;99.90
19037;DHT22;9651;49.138;8.900;2022-12-18T03:28:22;-6.90;99.90
19037;DHT22;9651;49.138;8.900;2022-12-18T03:32:36;-6.90;99.90
19037;DHT22;9651;49.138;8.900;2022-12-18T03:36:40;-6.90;99.90
19037;DHT22;9651;49.138;8.900;2022-12-18T03:40:58;-6.80;99.90
19037;DHT22;9651;49.138;8.900;2022-12-18T03:45:08;-6.80;99.90
19037;DHT22;9651;49.138;8.900;2022-12-18T03:49:19;-6.70;99.90
19037;DHT22;9651;49.138;8.900;2022-12-18T03:53:33;-6.70;99.90
19037;DHT22;9651;49.138;8.900;2022-12-18T03:57:38;-6.70;99.90
19037;DHT22;9651;49.138;8.900;2022-12-18T04:01:46;-6.70;99.90
19037;DHT22;9651;49.138;8.900;2022-12-18T04:05:52;-6.80;99.90
19037;DHT22;9651;49.138;8.900;2022-12-18T04:09:58;-6.80;99.90
19037;DHT22;9651;49.138;8.900;2022-12-18T04:14:02;-6.90;99.90
19037;DHT22;9651;49.138;8.900;2022-12-18T04:18:07;-6.90;99.90
19037;DHT22;9651;49.138;8.900;2022-12-18T04:22:17;-6.90;99.90
19037;DHT22;9651;49.138;8.900;2022-12-18T04:26:23;-6.90;99.90
19037;DHT22;9651;49.138;8.900;2022-12-18T04:30:44;-6.90;99.90
19037;DHT22;9651;49.138;8.900;2022-12-18T04:34:56;-6.90;99.90
19037;DHT22;9651;49.138;8.900;2022-12-18T04:39:00;-7.00;99.90
19037;DHT22;9651;49.138;8.900;2022-12-18T04:43:02;-7.10;99.90
19037;DHT22;9651;49.138;8.900;2022-12-18T04:47:04;-7.10;99.90
19037;DHT22;9651;49.138;8.900;2022-12-18T04:51:06;-7.10;99.90
19037;DHT22;9651;49.138;8.900;2022-12-18T04:55:09;-7.10;99.90
19037;DHT22;9651;49.138;8.900;2022-12-18T04:59:11;-7.10;99.90
19037;DHT22;9651;49.138;8.900;2022-12-18T05:03:13;-7.10;99.90
19037;DHT22;9651;49.138;8.900;2022-12-18T05:07:15;-7.10;99.90
19037;DHT22;9651;49.138;8.900;2022-12-18T05:11:18;-7.00;99.90
19037;DHT22;9651;49.138;8.900;2022-12-18T05:15:20;-7.00;99.90
19037;DHT22;9651;49.138;8.900;2022-12-18T05:19:22;-6.90;99.90
19037;DHT22;9651;49.138;8.900;2022-12-18T05:23:25;-6.90;99.90
19037;DHT22;9651;49.138;8.900;2022-12-18T05:27:28;-6.90;99.90
19037;DHT22;9651;49.138;8.900;2022-12-18T05:31:30;-6.90;99.90
19037;DHT22;9651;49.138;8.900;2022-12-18T05:35:32;-6.80;99.90
19037;DHT22;9651;49.138;8.900;2022-12-18T05:39:34;-6.90;99.90
19037;DHT22;9651;49.138;8.900;2022-12-18T05:43:39;-6.80;99.90
19037;DHT22;9651;49.138;8.900;2022-12-18T05:47:41;-6.90;99.90
19037;DHT22;9651;49.138;8.900;2022-12-18T05:51:43;-6.90;99.90
19037;DHT22;9651;49.138;8.900;2022-12-18T05:55:46;-6.90;99.90
19037;DHT22;9651;49.138;8.900;2022-12-18T05:59:49;-6.90;99.90
19037;DHT22;9651;49.138;8.900;2022-12-18T06:03:51;-6.90;99.90
19037;DHT22;9651;49.138;8.900;2022-12-18T06:07:53;-7.00;99.90
19037;DHT22;9651;49.138;8.900;2022-12-18T06:11:55;-6.90;99.90
19037;DHT22;9651;49.138;8.900;2022-12-18T06:15:59;-7.00;99.90
19037;DHT22;9651;49.138;8.900;2022-12-18T06:20:04;-7.00;99.90
19037;DHT22;9651;49.138;8.900;2022-12-18T06:24:07;-7.00;99.90
19037;DHT22;9651;49.138;8.900;2022-12-18T06:28:09;-7.00;99.90
19037;DHT22;9651;49.138;8.900;2022-12-18T06:32:12;-6.90;99.90
19037;DHT22;9651;49.138;8.900;2022-12-18T06:36:14;-6.90;99.90
19037;DHT22;9651;49.138;8.900;2022-12-18T06:40:16;-6.80;99.90
19037;DHT22;9651;49.138;8.900;2022-12-18T06:44:18;-6.80;99.90
19037;DHT22;9651;49.138;8.900;2022-12-18T06:48:21;-6.80;99.90
19037;DHT22;9651;49.138;8.900;2022-12-18T06:52:23;-6.80;99.90
19037;DHT22;9651;49.138;8.900;2022-12-18T06:56:25;-6.80;99.90
19037;DHT22;9651;49.138;8.900;2022-12-18T07:00:27;-6.80;99.90
19037;DHT22;9651;49.138;8.900;2022-12-18T07:04:30;-6.80;99.90
19037;DHT22;9651;49.138;8.900;2022-12-18T07:08:32;-6.90;99.90
19037;DHT22;9651;49.138;8.900;2022-12-18T07:12:35;-7.00;99.90
19037;DHT22;9651;49.138;8.900;2022-12-18T07:16:37;-7.10;99.90
19037;DHT22;9651;49.138;8.900;2022-12-18T07:20:40;-7.10;99.90
19037;DHT22;9651;49.138;8.900;2022-12-18T07:24:42;-7.10;99.90
19037;DHT22;9651;49.138;8.900;2022-12-18T07:28:44;-7.10;99.90
19037;DHT22;9651;49.138;8.900;2022-12-18T07:32:45;-7.20;99.90
19037;DHT22;9651;49.138;8.900;2022-12-18T07:36:49;-7.20;99.90
19037;DHT22;9651;49.138;8.900;2022-12-18T07:40:50;-7.30;99.90
19037;DHT22;9651;49.138;8.900;2022-12-18T07:44:52;-7.40;99.90
19037;DHT22;9651;49.138;8.900;2022-12-18T07:48:54;-7.40;99.90
19037;DHT22;9651;49.138;8.900;2022-12-18T07:52:57;-7.50;99.90
19037;DHT22;9651;49.138;8.900;2022-12-18T07:57:03;-7.50;99.90
19037;DHT22;9651;49.138;8.900;2022-12-18T08:01:07;-7.40;99.90
19037;DHT22;9651;49.138;8.900;2022-12-18T08:05:09;-7.40;99.90
19037;DHT22;9651;49.138;8.900;2022-12-18T08:09:12;-7.40;99.90
19037;DHT22;9651;49.138;8.900;2022-12-18T08:13:14;-7.30;99.90
19037;DHT22;9651;49.138;8.900;2022-12-18T08:17:16;-7.30;99.90
19037;DHT22;9651;49.138;8.900;2022-12-18T08:21:19;-7.20;99.90
19037;DHT22;9651;49.138;8.900;2022-12-18T08:25:24;-7.10;99.90
19037;DHT22;9651;49.138;8.900;2022-12-18T08:29:26;-7.00;99.90
19037;DHT22;9651;49.138;8.900;2022-12-18T08:33:28;-7.00;99.90
19037;DHT22;9651;49.138;8.900;2022-12-18T08:37:30;-6.90;99.90
19037;DHT22;9651;49.138;8.900;2022-12-18T08:41:33;-6.90;99.90
19037;DHT22;9651;49.138;8.900;2022-12-18T08:45:35;-7.00;99.90
19037;DHT22;9651;49.138;8.900;2022-12-18T08:49:37;-7.00;99.90
19037;DHT22;9651;49.138;8.900;2022-12-18T08:53:39;-7.00;99.90
19037;DHT22;9651;49.138;8.900;2022-12-18T08:57:42;-7.00;99.90
19037;DHT22;9651;49.138;8.900;2022-12-18T09:01:44;-6.80;99.90
19037;DHT22;9651;49.138;8.900;2022-12-18T09:05:46;-6.70;99.90
19037;DHT22;9651;49.138;8.900;2022-12-18T09:09:48;-6.30;99.90
19037;DHT22;9651;49.138;8.900;2022-12-18T09:13:52;-5.90;99.90
19037;DHT22;9651;49.138;8.900;2022-12-18T09:17:54;-5.70;99.90
19037;DHT22;9651;49.138;8.900;2022-12-18T09:21:56;-5.80;99.90
19037;DHT22;9651;49.138;8.900;2022-12-18T09:25:58;-6.00;99.90
19037;DHT22;9651;49.138;8.900;2022-12-18T09:30:02;-5.80;99.90
19037;DHT22;9651;49.138;8.900;2022-12-18T09:34:04;-5.60;99.90
19037;DHT22;9651;49.138;8.900;2022-12-18T09:38:07;-5.50;99.90
19037;DHT22;9651;49.138;8.900;2022-12-18T09:42:14;-5.40;99.90
19037;DHT22;9651;49.138;8.900;2022-12-18T09:46:26;-5.00;99.90
19037;DHT22;9651;49.138;8.900;2022-12-18T09:50:31;-4.60;99.90
19037;DHT22;9651;49.138;8.900;2022-12-18T09:54:38;-4.40;99.90
19037;DHT22;9651;49.138;8.900;2022-12-18T09:58:47;-4.20;99.90
19037;DHT22;9651;49.138;8.900;2022-12-18T10:02:56;-3.90;99.90
19037;DHT22;9651;49.138;8.900;2022-12-18T10:07:05;-3.40;99.90
19037;DHT22;9651;49.138;8.900;2022-12-18T10:11:36;-3.10;99.90
19037;DHT22;9651;49.138;8.900;2022-12-18T10:15:51;-3.00;99.90
19037;DHT22;9651;49.138;8.900;2022-12-18T10:20:00;-2.70;99.90
19037;DHT22;9651;49.138;8.900;2022-12-18T10:24:12;-2.70;99.90
19037;DHT22;9651;49.138;8.900;2022-12-18T10:28:18;-2.40;99.90
19037;DHT22;9651;49.138;8.900;2022-12-18T10:32:22;-2.10;99.90
19037;DHT22;9651;49.138;8.900;2022-12-18T10:36:26;-2.10;99.90
19037;DHT22;9651;49.138;8.900;2022-12-18T10:40:28;-1.80;99.90
19037;DHT22;9651;49.138;8.900;2022-12-18T10:44:30;-1.70;99.90
19037;DHT22;9651;49.138;8.900;2022-12-18T10:48:34;-1.60;99.90
19037;DHT22;9651;49.138;8.900;2022-12-18T10:52:38;-1.70;99.90
19037;DHT22;9651;49.138;8.900;2022-12-18T10:56:41;-1.70;99.90
19037;DHT22;9651;49.138;8.900;2022-12-18T11:00:43;-1.90;99.90
19037;DHT22;9651;49.138;8.900;2022-12-18T11:04:51;-1.60;99.90
19037;DHT22;9651;49.138;8.900;2022-12-18T11:08:59;-1.50;99.90
19037;DHT22;9651;49.138;8.900;2022-12-18T11:13:14;-1.50;99.90
19037;DHT22;9651;49.138;8.900;2022-12-18T11:17:19;-1.50;99.90
19037;DHT22;9651;49.138;8.900;2022-12-18T11:21:22;-1.50;99.90
19037;DHT22;9651;49.138;8.900;2022-12-18T11:25:28;-1.50;99.90
19037;DHT22;9651;49.138;8.900;2022-12-18T11:29:34;-1.40;99.90
19037;DHT22;9651;49.138;8.900;2022-12-18T11:33:38;-1.30;99.90
19037;DHT22;9651;49.138;8.900;2022-12-18T11:37:44;-1.20;99.90
19037;DHT22;9651;49.138;8.900;2022-12-18T11:41:53;-1.30;99.90
19037;DHT22;9651;49.138;8.900;2022-12-18T11:46:13;-1.30;99.90
19037;DHT22;9651;49.138;8.900;2022-12-18T11:50:19;-1.20;99.90
19037;DHT22;9651;49.138;8.900;2022-12-18T11:54:22;-1.30;99.90
19037;DHT22;9651;49.138;8.900;2022-12-18T11:58:37;-1.50;99.90
19037;DHT22;9651;49.138;8.900;2022-12-18T12:03:06;-1.60;99.90
19037;DHT22;9651;49.138;8.900;2022-12-18T12:07:23;-1.60;99.90
19037;DHT22;9651;49.138;8.900;2022-12-18T12:11:38;-1.60;99.90
19037;DHT22;9651;49.138;8.900;2022-12-18T12:15:50;-1.50;99.90
19037;DHT22;9651;49.138;8.900;2022-12-18T12:20:02;-1.30;99.90
19037;DHT22;9651;49.138;8.900;2022-12-18T12:24:18;-1.20;99.90
19037;DHT22;9651;49.138;8.900;2022-12-18T12:28:34;-1.10;99.90
19037;DHT22;9651;49.138;8.900;2022-12-18T12:33:01;-0.90;99.90
19037;DHT22;9651;49.138;8.900;2022-12-18T12:37:16;-0.80;99.90
19037;DHT22;9651;49.138;8.900;2022-12-18T12:41:24;-0.70;99.90
19037;DHT22;9651;49.138;8.900;2022-12-18T12:45:48;-0.70;99.90
19037;DHT22;9651;49.138;8.900;2022-12-18T12:49:52;-0.70;99.90
19037;DHT22;9651;49.138;8.900;2022-12-18T12:53:56;-0.60;99.90
19037;DHT22;9651;49.138;8.900;2022-12-18T12:58:05;-0.50;99.90
19037;DHT22;9651;49.138;8.900;2022-12-18T13:02:15;-0.40;99.90
19037;DHT22;9651;49.138;8.900;2022-12-18T13:06:30;-0.40;99.90
19037;DHT22;9651;49.138;8.900;2022-12-18T13:10:35;-0.60;99.90
19037;DHT22;9651;49.138;8.900;2022-12-18T13:14:39;-0.80;99.90
19037;DHT22;9651;49.138;8.900;2022-12-18T13:18:48;-0.90;99.90
19037;DHT22;9651;49.138;8.900;2022-12-18T13:22:52;-0.80;99.90
19037;DHT22;9651;49.138;8.900;2022-12-18T13:26:55;-0.70;99.90
19037;DHT22;9651;49.138;8.900;2022-12-18T13:30:58;-0.70;99.90
19037;DHT22;9651;49.138;8.900;2022-12-18T13:39:36;-0.60;99.90
19037;DHT22;9651;49.138;8.900;2022-12-18T13:43:40;-0.60;99.90
19037;DHT22;9651;49.138;8.900;2022-12-18T13:47:44;-0.70;99.90
19037;DHT22;9651;49.138;8.900;2022-12-18T13:51:48;-0.70;99.90
19037;DHT22;9651;49.138;8.900;2022-12-18T13:55:52;-0.80;99.90
19037;DHT22;9651;49.138;8.900;2022-12-18T13:59:54;-0.90;99.90
19037;DHT22;9651;49.138;8.900;2022-12-18T14:04:09;-1.00;99.90
19037;DHT22;9651;49.138;8.900;2022-12-18T14:08:13;-1.10;99.90
19037;DHT22;9651;49.138;8.900;2022-12-18T14:12:19;-1.20;99.90
19037;DHT22;9651;49.138;8.900;2022-12-18T14:16:40;-1.30;99.90
19037;DHT22;9651;49.138;8.900;2022-12-18T14:20:44;-1.30;99.90
19037;DHT22;9651;49.138;8.900;2022-12-18T14:25:06;-1.40;99.90
19037;DHT22;9651;49.138;8.900;2022-12-18T14:29:25;-1.50;99.90
19037;DHT22;9651;49.138;8.900;2022-12-18T14:33:27;-1.60;99.90
19037;DHT22;9651;49.138;8.900;2022-12-18T14:37:29;-1.60;99.90
19037;DHT22;9651;49.138;8.900;2022-12-18T14:41:31;-1.60;99.90
19037;DHT22;9651;49.138;8.900;2022-12-18T14:45:36;-1.60;99.90
19037;DHT22;9651;49.138;8.900;2022-12-18T14:49:43;-1.70;99.90
19037;DHT22;9651;49.138;8.900;2022-12-18T14:53:46;-1.70;99.90
19037;DHT22;9651;49.138;8.900;2022-12-18T14:57:51;-1.70;99.90
19037;DHT22;9651;49.138;8.900;2022-12-18T15:02:02;-1.80;99.90
19037;DHT22;9651;49.138;8.900;2022-12-18T15:06:23;-1.80;99.90
19037;DHT22;9651;49.138;8.900;2022-12-18T15:10:28;-1.80;99.90
19037;DHT22;9651;49.138;8.900;2022-12-18T15:14:34;-1.90;99.90
19037;DHT22;9651;49.138;8.900;2022-12-18T15:18:41;-2.00;99.90
19037;DHT22;9651;49.138;8.900;2022-12-18T15:22:47;-2.00;99.90
19037;DHT22;9651;49.138;8.900;2022-12-18T15:26:49;-2.10;99.90
19037;DHT22;9651;49.138;8.900;2022-12-18T15:31:06;-2.20;99.90
19037;DHT22;9651;49.138;8.900;2022-12-18T15:35:14;-2.20;99.90
19037;DHT22;9651;49.138;8.900;2022-12-18T15:39:16;-2.20;99.90
19037;DHT22;9651;49.138;8.900;2022-12-18T15:43:19;-2.30;99.90
19037;DHT22;9651;49.138;8.900;2022-12-18T15:47:37;-2.30;99.90
19037;DHT22;9651;49.138;8.900;2022-12-18T15:51:40;-2.30;99.90
19037;DHT22;9651;49.138;8.900;2022-12-18T15:55:42;-2.40;99.90
19037;DHT22;9651;49.138;8.900;2022-12-18T16:00:02;-2.40;99.90
19037;DHT22;9651;49.138;8.900;2022-12-18T16:04:05;-2.50;99.90
19037;DHT22;9651;49.138;8.900;2022-12-18T16:08:08;-2.50;99.90
19037;DHT22;9651;49.138;8.900;2022-12-18T16:12:15;-2.60;99.90
19037;DHT22;9651;49.138;8.900;2022-12-18T16:16:18;-2.60;99.90
19037;DHT22;9651;49.138;8.900;2022-12-18T16:20:21;-2.60;99.90
19037;DHT22;9651;49.138;8.900;2022-12-18T16:24:27;-2.60;99.90
19037;DHT22;9651;49.138;8.900;2022-12-18T16:28:29;-2.60;99.90
19037;DHT22;9651;49.138;8.900;2022-12-18T16:32:30;-2.60;99.90
19037;DHT22;9651;49.138;8.900;2022-12-18T16:36:32;-2.60;99.90
19037;DHT22;9651;49.138;8.900;2022-12-18T16:40:37;-2.50;99.90
19037;DHT22;9651;49.138;8.900;2022-12-18T16:45:03;-2.40;99.90
19037;DHT22;9651;49.138;8.900;2022-12-18T16:49:06;-2.30;99.90
19037;DHT22;9651;49.138;8.900;2022-12-18T16:53:08;-2.10;99.90
19037;DHT22;9651;49.138;8.900;2022-12-18T16:57:12;-2.00;99.90
19037;DHT22;9651;49.138;8.900;2022-12-18T17:01:15;-1.90;99.90
19037;DHT22;9651;49.138;8.900;2022-12-18T17:05:16;-1.80;99.90
19037;DHT22;9651;49.138;8.900;2022-12-18T17:09:20;-1.70;99.90
19037;DHT22;9651;49.138;8.900;2022-12-18T17:13:27;-1.70;99.90
19037;DHT22;9651;49.138;8.900;2022-12-18T17:17:28;-1.70;99.90
19037;DHT22;9651;49.138;8.900;2022-12-18T17:21:30;-1.70;99.90
19037;DHT22;9651;49.138;8.900;2022-12-18T17:25:32;-1.70;99.90
19037;DHT22;9651;49.138;8.900;2022-12-18T17:29:35;-1.90;99.90
19037;DHT22;9651;49.138;8.900;2022-12-18T17:33:37;-2.00;99.90
19037;DHT22;9651;49.138;8.900;2022-12-18T17:37:40;-2.00;99.90
19037;DHT22;9651;49.138;8.900;2022-12-18T17:41:42;-2.10;99.90
19037;DHT22;9651;49.138;8.900;2022-12-18T17:45:45;-2.10;99.90
19037;DHT22;9651;49.138;8.900;2022-12-18T17:49:47;-2.10;99.90
19037;DHT22;9651;49.138;8.900;2022-12-18T17:53:49;-2.10;99.90
19037;DHT22;9651;49.138;8.900;2022-12-18T17:57:51;-2.20;99.90
19037;DHT22;9651;49.138;8.900;2022-12-18T18:01:54;-2.30;99.90
19037;DHT22;9651;49.138;8.900;2022-12-18T18:05:57;-2.20;99.90
19037;DHT22;9651;49.138;8.900;2022-12-18T18:09:59;-2.20;99.90
19037;DHT22;9651;49.138;8.900;2022-12-18T18:14:03;-2.20;99.90
19037;DHT22;9651;49.138;8.900;2022-12-18T18:18:06;-2.20;99.90
19037;DHT22;9651;49.138;8.900;2022-12-18T18:22:08;-2.30;99.90
19037;DHT22;9651;49.138;8.900;2022-12-18T18:26:10;-2.40;99.90
19037;DHT22;9651;49.138;8.900;2022-12-18T18:30:12;-2.30;99.90
19037;DHT22;9651;49.138;8.900;2022-12-18T18:34:17;-2.30;99.90
19037;DHT22;9651;49.138;8.900;2022-12-18T18:38:19;-2.30;99.90
19037;DHT22;9651;49.138;8.900;2022-12-18T18:42:21;-2.30;99.90
19037;DHT22;9651;49.138;8.900;2022-12-18T18:46:23;-2.40;99.90
19037;DHT22;9651;49.138;8.900;2022-12-18T18:50:27;-2.30;99.90
19037;DHT22;9651;49.138;8.900;2022-12-18T18:54:29;-2.30;99.90
19037;DHT22;9651;49.138;8.900;2022-12-18T18:58:31;-2.40;99.90
19037;DHT22;9651;49.138;8.900;2022-12-18T19:02:33;-2.40;99.90
19037;DHT22;9651;49.138;8.900;2022-12-18T19:06:36;-2.40;99.90
19037;DHT22;9651;49.138;8.900;2022-12-18T19:10:39;-2.30;99.90
19037;DHT22;9651;49.138;8.900;2022-12-18T19:14:41;-2.30;99.90
19037;DHT22;9651;49.138;8.900;2022-12-18T19:18:44;-2.30;99.90
19037;DHT22;9651;49.138;8.900;2022-12-18T19:22:47;-2.30;99.90
19037;DHT22;9651;49.138;8.900;2022-12-18T19:26:49;-2.30;99.90
19037;DHT22;9651;49.138;8.900;2022-12-18T19:30:52;-2.30;99.90
19037;DHT22;9651;49.138;8.900;2022-12-18T19:34:54;-2.30;99.90
19037;DHT22;9651;49.138;8.900;2022-12-18T19:39:00;-2.30;99.90
19037;DHT22;9651;49.138;8.900;2022-12-18T19:43:02;-2.40;99.90
19037;DHT22;9651;49.138;8.900;2022-12-18T19:47:04;-2.40;99.90
19037;DHT22;9651;49.138;8.900;2022-12-18T19:51:07;-2.30;99.90
19037;DHT22;9651;49.138;8.900;2022-12-18T19:55:11;-2.30;99.90
19037;DHT22;9651;49.138;8.900;2022-12-18T19:59:12;-2.30;99.90
19037;DHT22;9651;49.138;8.900;2022-12-18T20:03:14;-2.40;99.90
19037;DHT22;9651;49.138;8.900;2022-12-18T20:07:16;-2.30;99.90
19037;DHT22;9651;49.138;8.900;2022-12-18T20:11:19;-2.40;99.90
19037;DHT22;9651;49.138;8.900;2022-12-18T20:15:22;-2.30;99.90
19037;DHT22;9651;49.138;8.900;2022-12-18T20:19:23;-2.30;99.90
19037;DHT22;9651;49.138;8.900;2022-12-18T20:23:25;-2.30;99.90
19037;DHT22;9651;49.138;8.900;2022-12-18T20:27:29;-2.30;99.90
19037;DHT22;9651;49.138;8.900;2022-12-18T20:31:30;-2.30;99.90
19037;DHT22;9651;49.138;8.900;2022-12-18T20:35:32;-2.30;99.90
19037;DHT22;9651;49.138;8.900;2022-12-18T20:39:34;-2.30;99.90
19037;DHT22;9651;49.138;8.900;2022-12-18T20:43:38;-2.20;99.90
19037;DHT22;9651;49.138;8.900;2022-12-18T20:47:40;-2.30;99.90
19037;DHT22;9651;49.138;8.900;2022-12-18T20:51:41;-2.30;99.90
19037;DHT22;9651;49.138;8.900;2022-12-18T20:55:43;-2.20;99.90
19037;DHT22;9651;49.138;8.900;2022-12-18T20:59:46;-2.30;99.90
19037;DHT22;9651;49.138;8.900;2022-12-18T21:03:49;-2.20;99.90
19037;DHT22;9651;49.138;8.900;2022-12-18T21:07:51;-2.20;99.90
19037;DHT22;9651;49.138;8.900;2022-12-18T21:11:53;-2.20;99.90
19037;DHT22;9651;49.138;8.900;2022-12-18T21:16:13;-2.20;99.90
19037;DHT22;9651;49.138;8.900;2022-12-18T21:20:15;-2.20;99.90
19037;DHT22;9651;49.138;8.900;2022-12-18T21:24:17;-2.20;99.90
19037;DHT22;9651;49.138;8.900;2022-12-18T21:28:19;-2.20;99.90
19037;DHT22;9651;49.138;8.900;2022-12-18T21:32:22;-2.20;99.90
19037;DHT22;9651;49.138;8.900;2022-12-18T21:36:24;-2.10;99.90
19037;DHT22;9651;49.138;8.900;2022-12-18T21:40:26;-2.10;99.90
19037;DHT22;9651;49.138;8.900;2022-12-18T21:44:29;-2.10;99.90
19037;DHT22;9651;49.138;8.900;2022-12-18T21:48:32;-2.00;99.90
19037;DHT22;9651;49.138;8.900;2022-12-18T21:52:34;-2.00;99.90
19037;DHT22;9651;49.138;8.900;2022-12-18T21:56:47;-2.00;99.90
19037;DHT22;9651;49.138;8.900;2022-12-18T22:00:49;-2.00;99.90
19037;DHT22;9651;49.138;8.900;2022-12-18T22:04:52;-1.90;99.90
19037;DHT22;9651;49.138;8.900;2022-12-18T22:08:54;-2.00;99.90
19037;DHT22;9651;49.138;8.900;2022-12-18T22:12:56;-1.90;99.90
19037;DHT22;9651;49.138;8.900;2022-12-18T22:16:57;-1.90;99.90
19037;DHT22;9651;49.138;8.900;2022-12-18T22:21:01;-1.90;99.90
19037;DHT22;9651;49.138;8.900;2022-12-18T22:25:04;-1.90;99.90
19037;DHT22;9651;49.138;8.900;2022-12-18T22:29:06;-1.80;99.90
19037;DHT22;9651;49.138;8.900;2022-12-18T22:33:26;-1.80;99.90
19037;DHT22;9651;49.138;8.900;2022-12-18T22:37:29;-1.80;99.90
19037;DHT22;9651;49.138;8.900;2022-12-18T22:41:31;-1.90;99.90
19037;DHT22;9651;49.138;8.900;2022-12-18T22:45:33;-1.80;99.90
19037;DHT22;9651;49.138;8.900;2022-12-18T22:49:35;-1.80;99.90
19037;DHT22;9651;49.138;8.900;2022-12-18T22:53:39;-1.80;99.90
19037;DHT22;9651;49.138;8.900;2022-12-18T22:57:41;-1.80;99.90
19037;DHT22;9651;49.138;8.900;2022-12-18T23:01:43;-1.80;99.90
19037;DHT22;9651;49.138;8.900;2022-12-18T23:05:45;-1.70;99.90
19037;DHT22;9651;49.138;8.900;2022-12-18T23:09:50;-1.70;99.90
19037;DHT22;9651;49.138;8.900;2022-12-18T23:13:52;-1.60;99.90
19037;DHT22;9651;49.138;8.900;2022-12-18T23:17:56;-1.60;99.90
19037;DHT22;9651;49.138;8.900;2022-12-18T23:21:58;-1.60;99.90
19037;DHT22;9651;49.138;8.900;2022-12-18T23:26:04;-1.60;99.90
19037;DHT22;9651;49.138;8.900;2022-12-18T23:30:07;-1.60;99.90
19037;DHT22;9651;49.138;8.900;2022-12-18T23:34:11;-1.60;99.90
19037;DHT22;9651;49.138;8.900;2022-12-18T23:38:13;-1.80;99.90
19037;DHT22;9651;49.138;8.900;2022-12-18T23:42:16;-1.80;99.90
19037;DHT22;9651;49.138;8.900;2022-12-18T23:46:20;-1.90;99.90
19037;DHT22;9651;49.138;8.900;2022-12-18T23:50:22;-1.90;99.90
19037;DHT22;9651;49.138;8.900;2022-12-18T23:54:24;-1.80;99.90
19037;DHT22;9651;49.138;8.900;2022-12-18T23:58:27;-1.80;99.90
